sensor_id;sensor_type;location;lat;lon;timestamp;P1;durP1;ratioP1;P2;durP2;ratioP2
61915;SDS011;47868;51.326;6.550;2023-06-04T00:01:20;2.80;;;2.50;;
61915;SDS011;47868;51.326;6.550;2023-06-04T00:03:47;3.47;;;2.85;;
61915;SDS011;47868;51.326;6.550;2023-06-04T00:06:13;3.30;;;2.40;;
61915;SDS011;47868;51.326;6.550;2023-06-04T00:08:39;5.90;;;2.80;;
61915;SDS011;47868;51.326;6.550;2023-06-04T00:11:05;3.83;;;2.60;;
61915;SDS011;47868;51.326;6.550;2023-06-04T00:13:31;5.07;;;2.60;;
61915;SDS011;47868;51.326;6.550;2023-06-04T00:15:57;4.68;;;2.90;;
61915;SDS011;47868;51.326;6.550;2023-06-04T00:18:23;4.78;;;2.50;;
61915;SDS011;47868;51.326;6.550;2023-06-04T00:20:49;3.53;;;2.40;;
61915;SDS011;47868;51.326;6.550;2023-06-04T00:23:15;4.43;;;2.60;;
61915;SDS011;47868;51.326;6.550;2023-06-04T00:25:41;4.22;;;2.58;;
61915;SDS011;47868;51.326;6.550;2023-06-04T00:28:07;3.92;;;2.60;;
61915;SDS011;47868;51.326;6.550;2023-06-04T00:30:33;6.07;;;2.75;;
61915;SDS011;47868;51.326;6.550;2023-06-04T00:33:00;4.10;;;2.65;;
61915;SDS011;47868;51.326;6.550;2023-06-04T00:35:26;3.35;;;2.40;;
61915;SDS011;47868;51.326;6.550;2023-06-04T00:37:52;4.90;;;2.63;;
61915;SDS011;47868;51.326;6.550;2023-06-04T00:40:18;2.97;;;2.05;;
61915;SDS011;47868;51.326;6.550;2023-06-04T00:42:45;7.20;;;2.38;;
61915;SDS011;47868;51.326;6.550;2023-06-04T00:45:11;9.13;;;2.30;;
61915;SDS011;47868;51.326;6.550;2023-06-04T00:47:40;6.18;;;2.22;;
61915;SDS011;47868;51.326;6.550;2023-06-04T00:50:06;3.08;;;2.35;;
61915;SDS011;47868;51.326;6.550;2023-06-04T00:52:33;4.65;;;2.55;;
61915;SDS011;47868;51.326;6.550;2023-06-04T00:55:00;2.75;;;2.30;;
61915;SDS011;47868;51.326;6.550;2023-06-04T00:57:27;4.00;;;2.53;;
61915;SDS011;47868;51.326;6.550;2023-06-04T00:59:53;7.10;;;2.53;;
61915;SDS011;47868;51.326;6.550;2023-06-04T01:02:23;5.78;;;2.42;;
61915;SDS011;47868;51.326;6.550;2023-06-04T01:07:19;3.75;;;2.45;;
61915;SDS011;47868;51.326;6.550;2023-06-04T01:09:48;4.97;;;2.80;;
61915;SDS011;47868;51.326;6.550;2023-06-04T01:12:14;3.97;;;2.50;;
61915;SDS011;47868;51.326;6.550;2023-06-04T01:14:40;7.30;;;2.70;;
61915;SDS011;47868;51.326;6.550;2023-06-04T01:20:00;4.32;;;2.80;;
61915;SDS011;47868;51.326;6.550;2023-06-04T01:24:56;7.68;;;2.78;;
61915;SDS011;47868;51.326;6.550;2023-06-04T01:27:24;4.68;;;2.97;;
61915;SDS011;47868;51.326;6.550;2023-06-04T01:29:50;5.75;;;2.92;;
61915;SDS011;47868;51.326;6.550;2023-06-04T01:32:16;4.82;;;3.17;;
61915;SDS011;47868;51.326;6.550;2023-06-04T01:34:43;6.80;;;2.60;;
61915;SDS011;47868;51.326;6.550;2023-06-04T01:37:09;4.40;;;2.22;;
61915;SDS011;47868;51.326;6.550;2023-06-04T01:39:36;2.78;;;2.50;;
61915;SDS011;47868;51.326;6.550;2023-06-04T01:42:02;8.75;;;2.67;;
61915;SDS011;47868;51.326;6.550;2023-06-04T01:44:28;5.75;;;2.50;;
61915;SDS011;47868;51.326;6.550;2023-06-04T01:46:54;2.53;;;2.20;;
61915;SDS011;47868;51.326;6.550;2023-06-04T01:49:20;6.00;;;2.40;;
61915;SDS011;47868;51.326;6.550;2023-06-04T01:51:46;4.40;;;2.40;;
61915;SDS011;47868;51.326;6.550;2023-06-04T01:54:12;3.15;;;2.38;;
61915;SDS011;47868;51.326;6.550;2023-06-04T01:56:38;3.58;;;2.55;;
61915;SDS011;47868;51.326;6.550;2023-06-04T01:59:05;5.75;;;2.10;;
61915;SDS011;47868;51.326;6.550;2023-06-04T02:01:32;5.20;;;2.45;;
61915;SDS011;47868;51.326;6.550;2023-06-04T02:03:59;8.60;;;2.67;;
61915;SDS011;47868;51.326;6.550;2023-06-04T02:06:25;5.20;;;2.15;;
61915;SDS011;47868;51.326;6.550;2023-06-04T02:08:54;5.22;;;2.67;;
61915;SDS011;47868;51.326;6.550;2023-06-04T02:11:20;6.30;;;2.60;;
61915;SDS011;47868;51.326;6.550;2023-06-04T02:13:46;6.57;;;2.22;;
61915;SDS011;47868;51.326;6.550;2023-06-04T02:16:12;4.38;;;2.47;;
61915;SDS011;47868;51.326;6.550;2023-06-04T02:18:39;3.15;;;2.25;;
61915;SDS011;47868;51.326;6.550;2023-06-04T02:21:05;6.55;;;2.28;;
61915;SDS011;47868;51.326;6.550;2023-06-04T02:23:31;5.25;;;2.47;;
61915;SDS011;47868;51.326;6.550;2023-06-04T02:25:57;6.72;;;3.10;;
61915;SDS011;47868;51.326;6.550;2023-06-04T02:28:23;3.67;;;2.47;;
61915;SDS011;47868;51.326;6.550;2023-06-04T02:30:50;6.57;;;2.55;;
61915;SDS011;47868;51.326;6.550;2023-06-04T02:33:16;3.90;;;2.55;;
61915;SDS011;47868;51.326;6.550;2023-06-04T02:35:42;4.03;;;2.47;;
61915;SDS011;47868;51.326;6.550;2023-06-04T02:38:08;3.45;;;2.45;;
61915;SDS011;47868;51.326;6.550;2023-06-04T02:40:35;3.20;;;2.53;;
61915;SDS011;47868;51.326;6.550;2023-06-04T02:43:01;7.78;;;2.25;;
61915;SDS011;47868;51.326;6.550;2023-06-04T02:45:27;4.03;;;2.20;;
61915;SDS011;47868;51.326;6.550;2023-06-04T02:47:53;8.50;;;2.58;;
61915;SDS011;47868;51.326;6.550;2023-06-04T02:50:19;4.38;;;2.33;;
61915;SDS011;47868;51.326;6.550;2023-06-04T02:52:46;3.08;;;2.17;;
61915;SDS011;47868;51.326;6.550;2023-06-04T02:55:12;5.90;;;2.15;;
61915;SDS011;47868;51.326;6.550;2023-06-04T02:57:41;3.35;;;2.20;;
61915;SDS011;47868;51.326;6.550;2023-06-04T03:00:08;3.50;;;2.20;;
61915;SDS011;47868;51.326;6.550;2023-06-04T03:02:38;5.30;;;2.40;;
61915;SDS011;47868;51.326;6.550;2023-06-04T03:05:04;3.20;;;2.33;;
61915;SDS011;47868;51.326;6.550;2023-06-04T03:07:30;4.65;;;2.30;;
61915;SDS011;47868;51.326;6.550;2023-06-04T03:09:57;6.28;;;2.90;;
61915;SDS011;47868;51.326;6.550;2023-06-04T03:12:23;5.30;;;2.80;;
61915;SDS011;47868;51.326;6.550;2023-06-04T03:14:49;7.97;;;2.50;;
61915;SDS011;47868;51.326;6.550;2023-06-04T03:17:15;5.72;;;2.80;;
61915;SDS011;47868;51.326;6.550;2023-06-04T03:19:41;3.75;;;2.90;;
61915;SDS011;47868;51.326;6.550;2023-06-04T03:22:08;5.13;;;3.05;;
61915;SDS011;47868;51.326;6.550;2023-06-04T03:24:35;4.13;;;2.92;;
61915;SDS011;47868;51.326;6.550;2023-06-04T03:27:01;5.78;;;3.00;;
61915;SDS011;47868;51.326;6.550;2023-06-04T03:29:28;5.20;;;2.88;;
61915;SDS011;47868;51.326;6.550;2023-06-04T03:31:55;5.30;;;2.80;;
61915;SDS011;47868;51.326;6.550;2023-06-04T03:34:21;5.38;;;2.50;;
61915;SDS011;47868;51.326;6.550;2023-06-04T03:36:51;3.47;;;2.53;;
61915;SDS011;47868;51.326;6.550;2023-06-04T03:39:17;6.28;;;2.58;;
61915;SDS011;47868;51.326;6.550;2023-06-04T03:41:43;6.95;;;2.85;;
61915;SDS011;47868;51.326;6.550;2023-06-04T03:44:09;5.15;;;2.53;;
61915;SDS011;47868;51.326;6.550;2023-06-04T03:46:35;4.43;;;2.67;;
61915;SDS011;47868;51.326;6.550;2023-06-04T03:49:02;4.18;;;2.30;;
61915;SDS011;47868;51.326;6.550;2023-06-04T03:51:28;6.63;;;2.53;;
61915;SDS011;47868;51.326;6.550;2023-06-04T03:53:54;6.70;;;2.90;;
61915;SDS011;47868;51.326;6.550;2023-06-04T03:56:20;6.03;;;3.05;;
61915;SDS011;47868;51.326;6.550;2023-06-04T03:58:46;7.38;;;2.90;;
61915;SDS011;47868;51.326;6.550;2023-06-04T04:01:12;3.47;;;2.65;;
61915;SDS011;47868;51.326;6.550;2023-06-04T04:03:39;6.72;;;3.05;;
61915;SDS011;47868;51.326;6.550;2023-06-04T04:06:05;7.43;;;2.90;;
61915;SDS011;47868;51.326;6.550;2023-06-04T04:08:31;3.78;;;2.75;;
61915;SDS011;47868;51.326;6.550;2023-06-04T04:10:59;5.40;;;3.30;;
61915;SDS011;47868;51.326;6.550;2023-06-04T04:13:25;6.50;;;2.95;;
61915;SDS011;47868;51.326;6.550;2023-06-04T04:15:51;2.95;;;2.47;;
61915;SDS011;47868;51.326;6.550;2023-06-04T04:18:21;5.35;;;2.97;;
61915;SDS011;47868;51.326;6.550;2023-06-04T04:20:47;4.30;;;2.83;;
61915;SDS011;47868;51.326;6.550;2023-06-04T04:23:14;6.30;;;3.28;;
61915;SDS011;47868;51.326;6.550;2023-06-04T04:25:41;4.70;;;2.72;;
61915;SDS011;47868;51.326;6.550;2023-06-04T04:28:09;4.75;;;2.80;;
61915;SDS011;47868;51.326;6.550;2023-06-04T04:30:35;6.95;;;2.75;;
61915;SDS011;47868;51.326;6.550;2023-06-04T04:33:02;7.57;;;3.13;;
61915;SDS011;47868;51.326;6.550;2023-06-04T04:35:30;4.03;;;2.80;;
61915;SDS011;47868;51.326;6.550;2023-06-04T04:37:58;6.70;;;3.15;;
61915;SDS011;47868;51.326;6.550;2023-06-04T04:40:24;6.38;;;2.88;;
61915;SDS011;47868;51.326;6.550;2023-06-04T04:42:50;4.15;;;3.15;;
61915;SDS011;47868;51.326;6.550;2023-06-04T04:45:16;4.35;;;2.80;;
61915;SDS011;47868;51.326;6.550;2023-06-04T04:47:42;7.07;;;2.80;;
61915;SDS011;47868;51.326;6.550;2023-06-04T04:50:09;8.50;;;2.97;;
61915;SDS011;47868;51.326;6.550;2023-06-04T04:52:35;4.20;;;2.47;;
61915;SDS011;47868;51.326;6.550;2023-06-04T04:55:01;5.28;;;2.85;;
61915;SDS011;47868;51.326;6.550;2023-06-04T04:57:28;4.57;;;2.97;;
61915;SDS011;47868;51.326;6.550;2023-06-04T04:59:54;3.63;;;2.70;;
61915;SDS011;47868;51.326;6.550;2023-06-04T05:02:20;4.15;;;2.90;;
61915;SDS011;47868;51.326;6.550;2023-06-04T05:04:46;10.32;;;2.67;;
61915;SDS011;47868;51.326;6.550;2023-06-04T05:07:12;4.70;;;2.75;;
61915;SDS011;47868;51.326;6.550;2023-06-04T05:09:38;4.18;;;2.85;;
61915;SDS011;47868;51.326;6.550;2023-06-04T05:12:04;4.78;;;2.95;;
61915;SDS011;47868;51.326;6.550;2023-06-04T05:14:31;7.25;;;2.78;;
61915;SDS011;47868;51.326;6.550;2023-06-04T05:16:57;3.60;;;2.80;;
61915;SDS011;47868;51.326;6.550;2023-06-04T05:19:23;3.45;;;2.88;;
61915;SDS011;47868;51.326;6.550;2023-06-04T05:21:50;2.97;;;2.75;;
61915;SDS011;47868;51.326;6.550;2023-06-04T05:24:16;6.93;;;2.72;;
61915;SDS011;47868;51.326;6.550;2023-06-04T05:26:42;4.35;;;3.15;;
61915;SDS011;47868;51.326;6.550;2023-06-04T05:29:09;5.47;;;3.05;;
61915;SDS011;47868;51.326;6.550;2023-06-04T05:31:35;3.78;;;2.97;;
61915;SDS011;47868;51.326;6.550;2023-06-04T05:34:02;7.78;;;2.92;;
61915;SDS011;47868;51.326;6.550;2023-06-04T05:36:29;4.28;;;2.60;;
61915;SDS011;47868;51.326;6.550;2023-06-04T05:38:56;5.85;;;2.83;;
61915;SDS011;47868;51.326;6.550;2023-06-04T05:41:28;3.85;;;2.90;;
61915;SDS011;47868;51.326;6.550;2023-06-04T05:43:54;3.35;;;2.63;;
61915;SDS011;47868;51.326;6.550;2023-06-04T05:46:20;3.70;;;2.67;;
61915;SDS011;47868;51.326;6.550;2023-06-04T05:48:47;6.63;;;2.90;;
61915;SDS011;47868;51.326;6.550;2023-06-04T05:51:13;3.30;;;2.78;;
61915;SDS011;47868;51.326;6.550;2023-06-04T05:53:39;3.65;;;3.00;;
61915;SDS011;47868;51.326;6.550;2023-06-04T05:56:05;2.88;;;2.60;;
61915;SDS011;47868;51.326;6.550;2023-06-04T05:58:34;4.65;;;2.63;;
61915;SDS011;47868;51.326;6.550;2023-06-04T06:01:01;4.13;;;3.20;;
61915;SDS011;47868;51.326;6.550;2023-06-04T06:03:28;8.02;;;2.38;;
61915;SDS011;47868;51.326;6.550;2023-06-04T06:05:54;7.82;;;3.20;;
61915;SDS011;47868;51.326;6.550;2023-06-04T06:08:22;3.85;;;2.70;;
61915;SDS011;47868;51.326;6.550;2023-06-04T06:10:48;2.88;;;2.40;;
61915;SDS011;47868;51.326;6.550;2023-06-04T06:13:14;2.58;;;1.98;;
61915;SDS011;47868;51.326;6.550;2023-06-04T06:15:41;5.32;;;2.67;;
61915;SDS011;47868;51.326;6.550;2023-06-04T06:18:07;3.22;;;2.60;;
61915;SDS011;47868;51.326;6.550;2023-06-04T06:20:34;3.88;;;2.42;;
61915;SDS011;47868;51.326;6.550;2023-06-04T06:23:06;2.80;;;2.38;;
61915;SDS011;47868;51.326;6.550;2023-06-04T06:25:32;3.55;;;2.45;;
61915;SDS011;47868;51.326;6.550;2023-06-04T06:27:58;4.25;;;2.67;;
61915;SDS011;47868;51.326;6.550;2023-06-04T06:30:25;4.72;;;3.40;;
61915;SDS011;47868;51.326;6.550;2023-06-04T06:32:51;5.72;;;2.42;;
61915;SDS011;47868;51.326;6.550;2023-06-04T06:35:18;2.85;;;2.38;;
61915;SDS011;47868;51.326;6.550;2023-06-04T06:37:44;3.88;;;2.60;;
61915;SDS011;47868;51.326;6.550;2023-06-04T06:40:10;6.03;;;2.70;;
61915;SDS011;47868;51.326;6.550;2023-06-04T06:42:36;4.22;;;2.60;;
61915;SDS011;47868;51.326;6.550;2023-06-04T06:45:03;4.05;;;2.40;;
61915;SDS011;47868;51.326;6.550;2023-06-04T06:47:29;3.80;;;2.70;;
61915;SDS011;47868;51.326;6.550;2023-06-04T06:49:55;3.85;;;2.85;;
61915;SDS011;47868;51.326;6.550;2023-06-04T06:52:21;7.63;;;3.03;;
61915;SDS011;47868;51.326;6.550;2023-06-04T06:54:47;5.85;;;2.88;;
61915;SDS011;47868;51.326;6.550;2023-06-04T06:57:13;6.45;;;3.08;;
61915;SDS011;47868;51.326;6.550;2023-06-04T06:59:40;6.30;;;3.10;;
61915;SDS011;47868;51.326;6.550;2023-06-04T07:02:06;5.10;;;2.60;;
61915;SDS011;47868;51.326;6.550;2023-06-04T07:04:32;4.72;;;3.20;;
61915;SDS011;47868;51.326;6.550;2023-06-04T07:06:58;8.40;;;3.80;;
61915;SDS011;47868;51.326;6.550;2023-06-04T07:09:24;4.55;;;3.13;;
61915;SDS011;47868;51.326;6.550;2023-06-04T07:11:50;7.40;;;3.22;;
61915;SDS011;47868;51.326;6.550;2023-06-04T07:14:16;6.47;;;2.58;;
61915;SDS011;47868;51.326;6.550;2023-06-04T07:16:42;6.65;;;2.97;;
61915;SDS011;47868;51.326;6.550;2023-06-04T07:19:08;7.20;;;2.83;;
61915;SDS011;47868;51.326;6.550;2023-06-04T07:21:34;6.40;;;3.42;;
61915;SDS011;47868;51.326;6.550;2023-06-04T07:24:00;5.03;;;3.08;;
61915;SDS011;47868;51.326;6.550;2023-06-04T07:26:26;3.00;;;2.45;;
61915;SDS011;47868;51.326;6.550;2023-06-04T07:28:55;4.35;;;3.03;;
61915;SDS011;47868;51.326;6.550;2023-06-04T07:31:22;7.05;;;3.90;;
61915;SDS011;47868;51.326;6.550;2023-06-04T07:33:48;6.00;;;3.40;;
61915;SDS011;47868;51.326;6.550;2023-06-04T07:36:14;3.88;;;3.10;;
61915;SDS011;47868;51.326;6.550;2023-06-04T07:38:41;7.95;;;3.53;;
61915;SDS011;47868;51.326;6.550;2023-06-04T07:41:07;7.00;;;3.63;;
61915;SDS011;47868;51.326;6.550;2023-06-04T07:43:34;6.53;;;3.65;;
61915;SDS011;47868;51.326;6.550;2023-06-04T07:46:01;9.23;;;3.72;;
61915;SDS011;47868;51.326;6.550;2023-06-04T07:48:27;3.53;;;2.90;;
61915;SDS011;47868;51.326;6.550;2023-06-04T07:50:58;5.50;;;3.55;;
61915;SDS011;47868;51.326;6.550;2023-06-04T07:53:25;4.40;;;3.63;;
61915;SDS011;47868;51.326;6.550;2023-06-04T07:55:52;6.18;;;3.72;;
61915;SDS011;47868;51.326;6.550;2023-06-04T07:58:18;5.82;;;4.00;;
61915;SDS011;47868;51.326;6.550;2023-06-04T08:00:44;5.55;;;3.72;;
61915;SDS011;47868;51.326;6.550;2023-06-04T08:03:10;5.88;;;3.60;;
61915;SDS011;47868;51.326;6.550;2023-06-04T08:05:36;7.97;;;4.07;;
61915;SDS011;47868;51.326;6.550;2023-06-04T08:08:02;8.98;;;3.67;;
61915;SDS011;47868;51.326;6.550;2023-06-04T08:10:29;5.75;;;3.55;;
61915;SDS011;47868;51.326;6.550;2023-06-04T08:12:55;7.72;;;3.80;;
61915;SDS011;47868;51.326;6.550;2023-06-04T08:15:21;4.78;;;3.33;;
61915;SDS011;47868;51.326;6.550;2023-06-04T08:17:48;8.25;;;3.70;;
61915;SDS011;47868;51.326;6.550;2023-06-04T08:20:14;5.78;;;3.60;;
61915;SDS011;47868;51.326;6.550;2023-06-04T08:22:40;6.03;;;3.63;;
61915;SDS011;47868;51.326;6.550;2023-06-04T08:25:07;4.85;;;3.70;;
61915;SDS011;47868;51.326;6.550;2023-06-04T08:27:34;5.93;;;4.03;;
61915;SDS011;47868;51.326;6.550;2023-06-04T08:30:00;6.95;;;3.85;;
61915;SDS011;47868;51.326;6.550;2023-06-04T08:32:27;8.38;;;4.45;;
61915;SDS011;47868;51.326;6.550;2023-06-04T08:34:53;13.82;;;4.57;;
61915;SDS011;47868;51.326;6.550;2023-06-04T08:37:19;5.43;;;3.60;;
61915;SDS011;47868;51.326;6.550;2023-06-04T08:39:46;7.88;;;3.22;;
61915;SDS011;47868;51.326;6.550;2023-06-04T08:42:45;6.97;;;3.60;;
61915;SDS011;47868;51.326;6.550;2023-06-04T08:45:04;4.28;;;3.33;;
61915;SDS011;47868;51.326;6.550;2023-06-04T08:47:32;5.70;;;3.17;;
61915;SDS011;47868;51.326;6.550;2023-06-04T08:49:59;4.40;;;3.33;;
61915;SDS011;47868;51.326;6.550;2023-06-04T08:52:25;6.18;;;3.63;;
61915;SDS011;47868;51.326;6.550;2023-06-04T08:54:52;7.63;;;3.95;;
61915;SDS011;47868;51.326;6.550;2023-06-04T08:57:19;4.13;;;3.03;;
61915;SDS011;47868;51.326;6.550;2023-06-04T08:59:46;4.28;;;2.92;;
61915;SDS011;47868;51.326;6.550;2023-06-04T09:02:13;5.63;;;2.97;;
61915;SDS011;47868;51.326;6.550;2023-06-04T09:04:39;4.43;;;3.03;;
61915;SDS011;47868;51.326;6.550;2023-06-04T09:07:05;3.50;;;2.70;;
61915;SDS011;47868;51.326;6.550;2023-06-04T09:09:33;3.83;;;2.70;;
61915;SDS011;47868;51.326;6.550;2023-06-04T09:12:03;5.60;;;2.50;;
61915;SDS011;47868;51.326;6.550;2023-06-04T09:14:29;3.75;;;2.60;;
61915;SDS011;47868;51.326;6.550;2023-06-04T09:16:56;3.60;;;2.42;;
61915;SDS011;47868;51.326;6.550;2023-06-04T09:19:23;5.82;;;2.50;;
61915;SDS011;47868;51.326;6.550;2023-06-04T09:21:50;3.50;;;2.50;;
61915;SDS011;47868;51.326;6.550;2023-06-04T09:24:17;4.63;;;2.63;;
61915;SDS011;47868;51.326;6.550;2023-06-04T09:26:43;6.63;;;2.80;;
61915;SDS011;47868;51.326;6.550;2023-06-04T09:29:10;6.72;;;3.05;;
61915;SDS011;47868;51.326;6.550;2023-06-04T09:31:36;2.78;;;2.30;;
61915;SDS011;47868;51.326;6.550;2023-06-04T09:34:03;5.55;;;2.28;;
61915;SDS011;47868;51.326;6.550;2023-06-04T09:36:30;6.03;;;2.60;;
61915;SDS011;47868;51.326;6.550;2023-06-04T09:38:56;7.50;;;3.00;;
61915;SDS011;47868;51.326;6.550;2023-06-04T09:41:22;8.35;;;2.28;;
61915;SDS011;47868;51.326;6.550;2023-06-04T09:43:49;5.78;;;2.38;;
61915;SDS011;47868;51.326;6.550;2023-06-04T09:46:16;3.28;;;2.45;;
61915;SDS011;47868;51.326;6.550;2023-06-04T09:48:43;4.88;;;2.45;;
61915;SDS011;47868;51.326;6.550;2023-06-04T09:51:12;4.97;;;2.13;;
61915;SDS011;47868;51.326;6.550;2023-06-04T09:53:40;4.78;;;2.28;;
61915;SDS011;47868;51.326;6.550;2023-06-04T09:56:07;4.05;;;2.22;;
61915;SDS011;47868;51.326;6.550;2023-06-04T09:58:33;3.08;;;1.90;;
61915;SDS011;47868;51.326;6.550;2023-06-04T10:01:01;4.53;;;2.00;;
61915;SDS011;47868;51.326;6.550;2023-06-04T10:03:36;5.13;;;2.22;;
61915;SDS011;47868;51.326;6.550;2023-06-04T10:06:04;5.80;;;2.38;;
61915;SDS011;47868;51.326;6.550;2023-06-04T10:08:31;7.82;;;2.45;;
61915;SDS011;47868;51.326;6.550;2023-06-04T10:11:01;3.75;;;2.40;;
61915;SDS011;47868;51.326;6.550;2023-06-04T10:13:31;6.03;;;2.38;;
61915;SDS011;47868;51.326;6.550;2023-06-04T10:16:00;5.50;;;2.20;;
61915;SDS011;47868;51.326;6.550;2023-06-04T10:18:27;6.18;;;2.40;;
61915;SDS011;47868;51.326;6.550;2023-06-04T10:20:56;3.78;;;2.40;;
61915;SDS011;47868;51.326;6.550;2023-06-04T10:23:23;5.70;;;2.40;;
61915;SDS011;47868;51.326;6.550;2023-06-04T10:25:50;3.25;;;2.00;;
61915;SDS011;47868;51.326;6.550;2023-06-04T10:28:17;5.30;;;2.28;;
61915;SDS011;47868;51.326;6.550;2023-06-04T10:30:45;6.88;;;2.35;;
61915;SDS011;47868;51.326;6.550;2023-06-04T10:33:11;3.70;;;2.58;;
61915;SDS011;47868;51.326;6.550;2023-06-04T10:35:37;6.10;;;2.58;;
61915;SDS011;47868;51.326;6.550;2023-06-04T10:38:05;4.10;;;2.28;;
61915;SDS011;47868;51.326;6.550;2023-06-04T10:40:32;7.93;;;2.65;;
61915;SDS011;47868;51.326;6.550;2023-06-04T10:43:03;4.88;;;2.35;;
61915;SDS011;47868;51.326;6.550;2023-06-04T10:45:29;4.68;;;2.17;;
61915;SDS011;47868;51.326;6.550;2023-06-04T10:48:05;4.18;;;2.28;;
61915;SDS011;47868;51.326;6.550;2023-06-04T10:50:32;7.20;;;2.67;;
61915;SDS011;47868;51.326;6.550;2023-06-04T10:52:59;4.10;;;2.42;;
61915;SDS011;47868;51.326;6.550;2023-06-04T10:55:28;7.28;;;2.42;;
61915;SDS011;47868;51.326;6.550;2023-06-04T10:57:58;7.10;;;3.38;;
61915;SDS011;47868;51.326;6.550;2023-06-04T11:00:38;4.10;;;3.28;;
61915;SDS011;47868;51.326;6.550;2023-06-04T11:03:05;3.85;;;2.90;;
61915;SDS011;47868;51.326;6.550;2023-06-04T11:05:37;4.85;;;2.88;;
61915;SDS011;47868;51.326;6.550;2023-06-04T11:08:06;4.60;;;2.30;;
61915;SDS011;47868;51.326;6.550;2023-06-04T11:10:43;3.65;;;2.47;;
61915;SDS011;47868;51.326;6.550;2023-06-04T11:13:09;7.43;;;2.95;;
61915;SDS011;47868;51.326;6.550;2023-06-04T11:18:07;2.38;;;2.05;;
61915;SDS011;47868;51.326;6.550;2023-06-04T11:20:33;4.00;;;2.70;;
61915;SDS011;47868;51.326;6.550;2023-06-04T11:23:00;5.07;;;2.80;;
61915;SDS011;47868;51.326;6.550;2023-06-04T11:25:28;5.95;;;2.50;;
61915;SDS011;47868;51.326;6.550;2023-06-04T11:27:55;5.78;;;2.50;;
61915;SDS011;47868;51.326;6.550;2023-06-04T11:30:22;5.00;;;3.17;;
61915;SDS011;47868;51.326;6.550;2023-06-04T11:32:49;8.70;;;3.15;;
61915;SDS011;47868;51.326;6.550;2023-06-04T11:35:15;8.35;;;3.88;;
61915;SDS011;47868;51.326;6.550;2023-06-04T11:37:41;5.70;;;2.80;;
61915;SDS011;47868;51.326;6.550;2023-06-04T11:40:19;5.97;;;2.55;;
61915;SDS011;47868;51.326;6.550;2023-06-04T11:42:46;4.70;;;2.30;;
61915;SDS011;47868;51.326;6.550;2023-06-04T11:45:13;5.28;;;2.20;;
61915;SDS011;47868;51.326;6.550;2023-06-04T11:47:39;3.65;;;2.20;;
61915;SDS011;47868;51.326;6.550;2023-06-04T11:50:06;5.07;;;2.60;;
61915;SDS011;47868;51.326;6.550;2023-06-04T11:52:33;7.38;;;2.97;;
61915;SDS011;47868;51.326;6.550;2023-06-04T11:54:59;4.72;;;2.78;;
61915;SDS011;47868;51.326;6.550;2023-06-04T11:57:25;3.80;;;2.58;;
61915;SDS011;47868;51.326;6.550;2023-06-04T11:59:51;5.38;;;2.30;;
61915;SDS011;47868;51.326;6.550;2023-06-04T12:02:18;3.13;;;2.30;;
61915;SDS011;47868;51.326;6.550;2023-06-04T12:04:44;2.88;;;2.35;;
61915;SDS011;47868;51.326;6.550;2023-06-04T12:07:11;4.57;;;2.60;;
61915;SDS011;47868;51.326;6.550;2023-06-04T12:09:45;3.45;;;1.92;;
61915;SDS011;47868;51.326;6.550;2023-06-04T12:12:11;6.45;;;2.13;;
61915;SDS011;47868;51.326;6.550;2023-06-04T12:14:38;7.03;;;2.35;;
61915;SDS011;47868;51.326;6.550;2023-06-04T12:17:07;6.35;;;2.20;;
61915;SDS011;47868;51.326;6.550;2023-06-04T12:19:45;2.92;;;2.00;;
61915;SDS011;47868;51.326;6.550;2023-06-04T12:22:12;4.47;;;2.15;;
61915;SDS011;47868;51.326;6.550;2023-06-04T12:24:56;4.13;;;2.20;;
61915;SDS011;47868;51.326;6.550;2023-06-04T12:27:25;4.15;;;1.95;;
61915;SDS011;47868;51.326;6.550;2023-06-04T12:29:55;3.75;;;2.20;;
61915;SDS011;47868;51.326;6.550;2023-06-04T12:32:21;2.65;;;1.98;;
61915;SDS011;47868;51.326;6.550;2023-06-04T12:34:47;4.75;;;2.30;;
61915;SDS011;47868;51.326;6.550;2023-06-04T12:37:13;3.42;;;1.60;;
61915;SDS011;47868;51.326;6.550;2023-06-04T12:39:39;3.58;;;1.88;;
61915;SDS011;47868;51.326;6.550;2023-06-04T12:42:06;3.80;;;2.10;;
61915;SDS011;47868;51.326;6.550;2023-06-04T12:44:35;8.00;;;2.00;;
61915;SDS011;47868;51.326;6.550;2023-06-04T12:47:02;4.57;;;2.30;;
61915;SDS011;47868;51.326;6.550;2023-06-04T12:49:28;3.40;;;2.15;;
61915;SDS011;47868;51.326;6.550;2023-06-04T12:51:54;2.58;;;2.22;;
61915;SDS011;47868;51.326;6.550;2023-06-04T12:54:20;3.47;;;2.30;;
61915;SDS011;47868;51.326;6.550;2023-06-04T12:56:46;2.20;;;2.00;;
61915;SDS011;47868;51.326;6.550;2023-06-04T12:59:13;2.90;;;2.13;;
61915;SDS011;47868;51.326;6.550;2023-06-04T13:01:39;4.80;;;2.42;;
61915;SDS011;47868;51.326;6.550;2023-06-04T13:04:05;3.33;;;2.05;;
61915;SDS011;47868;51.326;6.550;2023-06-04T13:06:33;3.05;;;2.38;;
61915;SDS011;47868;51.326;6.550;2023-06-04T13:09:00;3.25;;;1.90;;
61915;SDS011;47868;51.326;6.550;2023-06-04T13:11:26;5.60;;;2.42;;
61915;SDS011;47868;51.326;6.550;2023-06-04T13:13:52;5.72;;;2.40;;
61915;SDS011;47868;51.326;6.550;2023-06-04T13:16:18;3.58;;;2.40;;
61915;SDS011;47868;51.326;6.550;2023-06-04T13:18:44;2.20;;;2.00;;
61915;SDS011;47868;51.326;6.550;2023-06-04T13:21:10;4.82;;;2.20;;
61915;SDS011;47868;51.326;6.550;2023-06-04T13:23:36;5.00;;;2.22;;
61915;SDS011;47868;51.326;6.550;2023-06-04T13:26:02;3.35;;;2.20;;
61915;SDS011;47868;51.326;6.550;2023-06-04T13:28:28;2.80;;;2.50;;
61915;SDS011;47868;51.326;6.550;2023-06-04T13:30:55;2.70;;;2.30;;
61915;SDS011;47868;51.326;6.550;2023-06-04T13:33:21;3.45;;;2.53;;
61915;SDS011;47868;51.326;6.550;2023-06-04T13:35:47;6.30;;;2.83;;
61915;SDS011;47868;51.326;6.550;2023-06-04T13:38:15;3.85;;;2.53;;
61915;SDS011;47868;51.326;6.550;2023-06-04T13:40:41;1.92;;;1.83;;
61915;SDS011;47868;51.326;6.550;2023-06-04T13:43:08;3.33;;;2.42;;
61915;SDS011;47868;51.326;6.550;2023-06-04T13:45:34;2.20;;;2.00;;
61915;SDS011;47868;51.326;6.550;2023-06-04T13:48:00;2.92;;;2.40;;
61915;SDS011;47868;51.326;6.550;2023-06-04T13:50:30;4.72;;;2.28;;
61915;SDS011;47868;51.326;6.550;2023-06-04T13:52:56;7.65;;;2.67;;
61915;SDS011;47868;51.326;6.550;2023-06-04T13:55:22;4.32;;;3.08;;
61915;SDS011;47868;51.326;6.550;2023-06-04T13:57:48;7.07;;;2.60;;
61915;SDS011;47868;51.326;6.550;2023-06-04T14:00:14;6.35;;;2.58;;
61915;SDS011;47868;51.326;6.550;2023-06-04T14:02:40;3.67;;;2.70;;
61915;SDS011;47868;51.326;6.550;2023-06-04T14:05:06;3.00;;;2.50;;
61915;SDS011;47868;51.326;6.550;2023-06-04T14:07:33;4.28;;;3.05;;
61915;SDS011;47868;51.326;6.550;2023-06-04T14:09:59;4.13;;;3.10;;
61915;SDS011;47868;51.326;6.550;2023-06-04T14:12:25;3.10;;;2.80;;
61915;SDS011;47868;51.326;6.550;2023-06-04T14:14:51;6.38;;;2.58;;
61915;SDS011;47868;51.326;6.550;2023-06-04T14:17:17;2.92;;;2.63;;
61915;SDS011;47868;51.326;6.550;2023-06-04T14:19:43;4.53;;;3.00;;
61915;SDS011;47868;51.326;6.550;2023-06-04T14:22:10;5.00;;;2.72;;
61915;SDS011;47868;51.326;6.550;2023-06-04T14:24:40;3.45;;;2.83;;
61915;SDS011;47868;51.326;6.550;2023-06-04T14:27:07;4.82;;;2.80;;
61915;SDS011;47868;51.326;6.550;2023-06-04T14:29:34;6.10;;;2.53;;
61915;SDS011;47868;51.326;6.550;2023-06-04T14:32:00;3.08;;;2.78;;
61915;SDS011;47868;51.326;6.550;2023-06-04T14:34:26;4.35;;;2.47;;
61915;SDS011;47868;51.326;6.550;2023-06-04T14:36:52;2.50;;;2.30;;
61915;SDS011;47868;51.326;6.550;2023-06-04T14:39:19;2.55;;;2.35;;
61915;SDS011;47868;51.326;6.550;2023-06-04T14:41:45;2.83;;;2.45;;
61915;SDS011;47868;51.326;6.550;2023-06-04T14:44:11;4.93;;;2.88;;
61915;SDS011;47868;51.326;6.550;2023-06-04T14:46:37;6.95;;;2.88;;
61915;SDS011;47868;51.326;6.550;2023-06-04T14:49:03;3.33;;;3.03;;
61915;SDS011;47868;51.326;6.550;2023-06-04T14:51:29;4.65;;;2.95;;
61915;SDS011;47868;51.326;6.550;2023-06-04T14:53:55;7.60;;;2.80;;
61915;SDS011;47868;51.326;6.550;2023-06-04T14:56:21;5.57;;;2.90;;